Livorno Express — VRLU9 — position and weather

sailwx.info

Track history (hours):
 
Tides and Currents Weather Stations Pressure Air Temp Water Temp Dewpoint Dewpoint Depression Visibility Wind Speed Wind Dir Waves Ship Positions

Livorno Express

Last reported at 2018-Jun-22 03:35 UTC. Time now 2018-Jun-22 05:37 UTC.
Position N 38°57' E 005°26'.

Length 228 m; draft 8.7 m.

Type: Ship (hazmat cat A). MMSI: 477486100.

Date/timePositionNaut miles runAvg speedWind from/ knotsBaromVisibWave heightAir tempDewpointWater temp
2018-Jun-22 03:35N 38°57' E 005°26'519.6
2018-Jun-22 03:19N 38°57' E 005°19'619.7
2018-Jun-22 03:00N 38°58' E 005°11'1119.7
2018-Jun-22 02:28N 38°58' E 004°58'919.7
2018-Jun-22 02:00N 38°58' E 004°46'1019.7
2018-Jun-22 01:30N 38°59' E 004°33'1019.5
2018-Jun-22 01:00N 38°59' E 004°21'1019.7
2018-Jun-22 00:30N 38°60' E 004°08'1019.6
2018-Jun-22 00:00N 39°01' E 003°56'1019.4
2018-Jun-21 23:30N 39°01' E 003°43'1019.2
2018-Jun-21 23:00N 39°02' E 003°31'1019.5
2018-Jun-21 22:30N 39°03' E 003°18'1019.1
2018-Jun-21 21:59N 39°03' E 003°05'919.0
2018-Jun-21 21:30N 39°03' E 002°54'1018.9
2018-Jun-21 21:00N 39°06' E 002°42'918.8
2018-Jun-21 20:30N 39°08' E 002°30'1019.0
2018-Jun-21 20:00N 39°09' E 002°18'919.2
2018-Jun-21 19:30N 39°12' E 002°06'1019.2
2018-Jun-21 19:00N 39°14' E 001°54'1219.5
2018-Jun-21 18:25N 39°16' E 001°40'819.6
2018-Jun-21 18:00N 39°19' E 001°29'1019.5
2018-Jun-21 17:30N 39°21' E 001°17'1019.4
2018-Jun-21 17:00N 39°23' E 001°05'3719.1
2018-Jun-21 15:03N 39°32' E 000°18'419.1
2018-Jun-21 14:50N 39°33' E 000°13'619.2
2018-Jun-21 14:30N 39°34' E 000°05'918.2
2018-Jun-21 14:00N 39°36' W 000°07'510.1
2018-Jun-21 13:31N 39°38' W 000°13'1 1.0
2018-Jun-21 12:58N 39°39' W 000°13'0 0.0
2018-Jun-21 12:28N 39°39' W 000°13'0 0.0
2018-Jun-21 11:58N 39°39' W 000°13'0 0.0
2018-Jun-21 11:28N 39°39' W 000°13'0 0.0
2018-Jun-21 10:52N 39°39' W 000°13'0 0.0
2018-Jun-21 10:28N 39°39' W 000°13'0 0.0
2018-Jun-21 09:52N 39°39' W 000°13'0 0.0
2018-Jun-21 09:25N 39°39' W 000°13'0 0.0
2018-Jun-21 08:43N 39°39' W 000°13'0 0.0
2018-Jun-21 08:22N 39°39' W 000°13'0 0.0
2018-Jun-21 07:58N 39°39' W 000°13'0 0.0
2018-Jun-21 07:22N 39°39' W 000°13'0 0.0
2018-Jun-21 06:58N 39°39' W 000°13'0 0.0
2018-Jun-21 06:28N 39°39' W 000°13'0 0.0
2018-Jun-21 05:58N 39°39' W 000°13'0 0.0
2018-Jun-21 04:43N 39°39' W 000°13'0 1.3
2018-Jun-21 04:26N 39°38' W 000°13'3 5.9
2018-Jun-21 03:59N 39°36' W 000°11'3 6.4
2018-Jun-21 03:28N 39°33' W 000°09'3 7.4
2018-Jun-21 03:00N 39°30' W 000°07'4914.9
2018-Jun-20 23:45N 38°48' E 000°24'415.5
2018-Jun-20 23:29N 38°44' E 000°27'1313.9
2018-Jun-20 22:33N 38°32' E 000°20'114.7
2018-Jun-20 22:30N 38°32' E 000°20'1314.8
2018-Jun-20 21:35N 38°20' E 000°10'115.0
2018-Jun-20 21:30N 38°19' E 000°09'814.9
2018-Jun-20 20:59N 38°13' E 000°04'714.9
2018-Jun-20 20:30N 38°07' W 000°01'815.1
2018-Jun-20 20:00N 38°00' W 000°06'815.1
2018-Jun-20 19:30N 37°54' W 000°11'714.9
2018-Jun-20 19:00N 37°48' W 000°16'814.9
2018-Jun-20 18:30N 37°42' W 000°22'715.0
2018-Jun-20 18:01N 37°36' W 000°28'815.4
2018-Jun-20 17:30N 37°30' W 000°34'714.9
2018-Jun-20 17:00N 37°25' W 000°41'714.1
2018-Jun-20 16:30N 37°21' W 000°48'714.3
2018-Jun-20 15:59N 37°16' W 000°55'714.7
2018-Jun-20 15:30N 37°11' W 001°02'814.8
2018-Jun-20 14:57N 37°06' W 001°10'714.6
2018-Jun-20 14:29N 37°02' W 001°16'216 4.4
2018-Jun-18 13:57N 35°57' W 005°32'3 6.1
2018-Jun-18 13:30N 35°58' W 005°30'4 7.2
2018-Jun-18 13:00N 36°00' W 005°26'3 6.6
2018-Jun-18 12:30N 36°03' W 005°23'3 6.0
2018-Jun-18 11:58N 36°06' W 005°25'0 0.0
2018-Jun-18 11:19N 36°06' W 005°25'0 0.1
2018-Jun-18 10:55N 36°06' W 005°25'0 0.0
2018-Jun-18 10:04N 36°06' W 005°25'0 0.1
2018-Jun-18 09:58N 36°06' W 005°25'0 0.0
2018-Jun-18 09:28N 36°06' W 005°25'0 0.0
2018-Jun-18 08:55N 36°06' W 005°25'0 0.1
2018-Jun-18 08:25N 36°06' W 005°25'0 0.2
2018-Jun-18 07:58N 36°06' W 005°25'0 0.1
2018-Jun-18 07:28N 36°06' W 005°25'0 0.0
2018-Jun-18 06:58N 36°06' W 005°25'0 0.0
2018-Jun-18 06:30N 36°06' W 005°25'0 0.0
2018-Jun-18 06:00N 36°06' W 005°25'0 0.4
2018-Jun-18 05:30N 36°06' W 005°24'0 0.1
2018-Jun-18 05:00N 36°06' W 005°25'1 2.1
2018-Jun-18 04:30N 36°05' W 005°24'2 3.1
2018-Jun-18 04:01N 36°04' W 005°22'1 2.7
2018-Jun-18 03:30N 36°02' W 005°23'4 8.1
2018-Jun-18 03:00N 35°59' W 005°25'5 9.6
2018-Jun-18 02:30N 35°57' W 005°30'1412.6
2018-Jun-18 01:24N 35°55' W 005°47'812.6
2018-Jun-18 00:47N 35°55' W 005°57'413.1
2018-Jun-18 00:30N 35°55' W 006°02'1113.4
2018-Jun-17 23:42N 35°53' W 006°15'11014.4
2018-Jun-17 16:06N 36°14' W 008°28'214.0
2018-Jun-17 15:57N 36°14' W 008°30'714.6
2018-Jun-17 15:27N 36°16' W 008°39'714.6
2018-Jun-17 14:58N 36°17' W 008°48'815.9
2018-Jun-17 14:29N 36°19' W 008°57'816.4
2018-Jun-17 13:59N 36°20' W 009°07'2516.1
2018-Jun-17 12:25N 36°26' W 009°38'716.0
2018-Jun-17 11:59N 36°30' W 009°45'915.8
2018-Jun-17 11:26N 36°34' W 009°55'10314.7
2018-Jun-17 04:27N 37°12' W 011°54'714.4
2018-Jun-17 03:59N 37°15' W 012°02'814.2
2018-Jun-17 03:25N 37°18' W 012°11'914.3
2018-Jun-17 02:50N 37°21' W 012°21'3314.3
2018-Jun-17 00:30N 37°33' W 013°00'7814.6
2018-Jun-16 19:07N 38°00' W 014°33'214.3
2018-Jun-16 19:00N 38°01' W 014°35'  
Track history (hours):
 
Tides and Currents Weather Stations Pressure Air Temp Water Temp Dewpoint Dewpoint Depression Visibility Wind Speed Wind Dir Waves Ship Positions

Livorno Express

Last reported at 2018-Jun-22 03:35 UTC. Time now 2018-Jun-22 05:37 UTC.
Position N 38°57' E 005°26'.

Length 228 m; draft 8.7 m.

Type: Ship (hazmat cat A). MMSI: 477486100.

Date/timePositionNaut miles runAvg speedWind from/ knotsBaromVisibWave heightAir tempDewpointWater temp
2018-Jun-22 03:35N 38°57' E 005°26'519.6
2018-Jun-22 03:19N 38°57' E 005°19'619.7
2018-Jun-22 03:00N 38°58' E 005°11'1119.7
2018-Jun-22 02:28N 38°58' E 004°58'919.7
2018-Jun-22 02:00N 38°58' E 004°46'1019.7
2018-Jun-22 01:30N 38°59' E 004°33'1019.5
2018-Jun-22 01:00N 38°59' E 004°21'1019.7
2018-Jun-22 00:30N 38°60' E 004°08'1019.6
2018-Jun-22 00:00N 39°01' E 003°56'1019.4
2018-Jun-21 23:30N 39°01' E 003°43'1019.2
2018-Jun-21 23:00N 39°02' E 003°31'1019.5
2018-Jun-21 22:30N 39°03' E 003°18'1019.1
2018-Jun-21 21:59N 39°03' E 003°05'919.0
2018-Jun-21 21:30N 39°03' E 002°54'1018.9
2018-Jun-21 21:00N 39°06' E 002°42'918.8
2018-Jun-21 20:30N 39°08' E 002°30'1019.0
2018-Jun-21 20:00N 39°09' E 002°18'919.2
2018-Jun-21 19:30N 39°12' E 002°06'1019.2
2018-Jun-21 19:00N 39°14' E 001°54'1219.5
2018-Jun-21 18:25N 39°16' E 001°40'819.6
2018-Jun-21 18:00N 39°19' E 001°29'1019.5
2018-Jun-21 17:30N 39°21' E 001°17'1019.4
2018-Jun-21 17:00N 39°23' E 001°05'3719.1
2018-Jun-21 15:03N 39°32' E 000°18'419.1
2018-Jun-21 14:50N 39°33' E 000°13'619.2
2018-Jun-21 14:30N 39°34' E 000°05'918.2
2018-Jun-21 14:00N 39°36' W 000°07'510.1
2018-Jun-21 13:31N 39°38' W 000°13'1 1.0
2018-Jun-21 12:58N 39°39' W 000°13'0 0.0
2018-Jun-21 12:28N 39°39' W 000°13'0 0.0
2018-Jun-21 11:58N 39°39' W 000°13'0 0.0
2018-Jun-21 11:28N 39°39' W 000°13'0 0.0
2018-Jun-21 10:52N 39°39' W 000°13'0 0.0
2018-Jun-21 10:28N 39°39' W 000°13'0 0.0
2018-Jun-21 09:52N 39°39' W 000°13'0 0.0
2018-Jun-21 09:25N 39°39' W 000°13'0 0.0
2018-Jun-21 08:43N 39°39' W 000°13'0 0.0
2018-Jun-21 08:22N 39°39' W 000°13'0 0.0
2018-Jun-21 07:58N 39°39' W 000°13'0 0.0
2018-Jun-21 07:22N 39°39' W 000°13'0 0.0
2018-Jun-21 06:58N 39°39' W 000°13'0 0.0
2018-Jun-21 06:28N 39°39' W 000°13'0 0.0
2018-Jun-21 05:58N 39°39' W 000°13'0 0.0
2018-Jun-21 04:43N 39°39' W 000°13'0 1.3
2018-Jun-21 04:26N 39°38' W 000°13'3 5.9
2018-Jun-21 03:59N 39°36' W 000°11'3 6.4
2018-Jun-21 03:28N 39°33' W 000°09'3 7.4
2018-Jun-21 03:00N 39°30' W 000°07'4914.9
2018-Jun-20 23:45N 38°48' E 000°24'415.5
2018-Jun-20 23:29N 38°44' E 000°27'1313.9
2018-Jun-20 22:33N 38°32' E 000°20'114.7
2018-Jun-20 22:30N 38°32' E 000°20'1314.8
2018-Jun-20 21:35N 38°20' E 000°10'115.0
2018-Jun-20 21:30N 38°19' E 000°09'814.9
2018-Jun-20 20:59N 38°13' E 000°04'714.9
2018-Jun-20 20:30N 38°07' W 000°01'815.1
2018-Jun-20 20:00N 38°00' W 000°06'815.1
2018-Jun-20 19:30N 37°54' W 000°11'714.9
2018-Jun-20 19:00N 37°48' W 000°16'814.9
2018-Jun-20 18:30N 37°42' W 000°22'715.0
2018-Jun-20 18:01N 37°36' W 000°28'815.4
2018-Jun-20 17:30N 37°30' W 000°34'714.9
2018-Jun-20 17:00N 37°25' W 000°41'714.1
2018-Jun-20 16:30N 37°21' W 000°48'714.3
2018-Jun-20 15:59N 37°16' W 000°55'714.7
2018-Jun-20 15:30N 37°11' W 001°02'814.8
2018-Jun-20 14:57N 37°06' W 001°10'714.6
2018-Jun-20 14:29N 37°02' W 001°16'216 4.4
2018-Jun-18 13:57N 35°57' W 005°32'3 6.1
2018-Jun-18 13:30N 35°58' W 005°30'4 7.2
2018-Jun-18 13:00N 36°00' W 005°26'3 6.6
2018-Jun-18 12:30N 36°03' W 005°23'3 6.0
2018-Jun-18 11:58N 36°06' W 005°25'0 0.0
2018-Jun-18 11:19N 36°06' W 005°25'0 0.1
2018-Jun-18 10:55N 36°06' W 005°25'0 0.0
2018-Jun-18 10:04N 36°06' W 005°25'0 0.1
2018-Jun-18 09:58N 36°06' W 005°25'0 0.0
2018-Jun-18 09:28N 36°06' W 005°25'0 0.0
2018-Jun-18 08:55N 36°06' W 005°25'0 0.1
2018-Jun-18 08:25N 36°06' W 005°25'0 0.2
2018-Jun-18 07:58N 36°06' W 005°25'0 0.1
2018-Jun-18 07:28N 36°06' W 005°25'0 0.0
2018-Jun-18 06:58N 36°06' W 005°25'0 0.0
2018-Jun-18 06:30N 36°06' W 005°25'0 0.0
2018-Jun-18 06:00N 36°06' W 005°25'0 0.4
2018-Jun-18 05:30N 36°06' W 005°24'0 0.1
2018-Jun-18 05:00N 36°06' W 005°25'1 2.1
2018-Jun-18 04:30N 36°05' W 005°24'2 3.1
2018-Jun-18 04:01N 36°04' W 005°22'1 2.7
2018-Jun-18 03:30N 36°02' W 005°23'4 8.1
2018-Jun-18 03:00N 35°59' W 005°25'5 9.6
2018-Jun-18 02:30N 35°57' W 005°30'1412.6
2018-Jun-18 01:24N 35°55' W 005°47'812.6
2018-Jun-18 00:47N 35°55' W 005°57'413.1
2018-Jun-18 00:30N 35°55' W 006°02'1113.4
2018-Jun-17 23:42N 35°53' W 006°15'11014.4
2018-Jun-17 16:06N 36°14' W 008°28'214.0
2018-Jun-17 15:57N 36°14' W 008°30'714.6
2018-Jun-17 15:27N 36°16' W 008°39'714.6
2018-Jun-17 14:58N 36°17' W 008°48'815.9
2018-Jun-17 14:29N 36°19' W 008°57'816.4
2018-Jun-17 13:59N 36°20' W 009°07'2516.1
2018-Jun-17 12:25N 36°26' W 009°38'716.0
2018-Jun-17 11:59N 36°30' W 009°45'915.8
2018-Jun-17 11:26N 36°34' W 009°55'10314.7
2018-Jun-17 04:27N 37°12' W 011°54'714.4
2018-Jun-17 03:59N 37°15' W 012°02'814.2
2018-Jun-17 03:25N 37°18' W 012°11'914.3
2018-Jun-17 02:50N 37°21' W 012°21'3314.3
2018-Jun-17 00:30N 37°33' W 013°00'7814.6
2018-Jun-16 19:07N 38°00' W 014°33'214.3
2018-Jun-16 19:00N 38°01' W 014°35'  

Dump ship's entire track history